createdAt,value
2019-03-30T00:02:35.411Z,83.30
2019-03-30T00:05:15.798Z,85.10
2019-03-30T00:07:54.959Z,85.10
2019-03-30T00:10:34.062Z,86.10
2019-03-30T00:13:16.353Z,87.20
2019-03-30T00:15:56.689Z,86.40
2019-03-30T00:18:41.228Z,86.30
2019-03-30T00:21:17.155Z,85.10
2019-03-30T00:23:55.999Z,84.90
2019-03-30T00:26:32.369Z,83.60
2019-03-30T00:29:13.901Z,84.90
2019-03-30T00:31:52.917Z,85.40
2019-03-30T00:34:38.906Z,84.20
2019-03-30T00:37:22.070Z,84.90
2019-03-30T00:40:01.269Z,84.90
2019-03-30T00:42:43.014Z,85.80
2019-03-30T00:45:20.403Z,86.20
2019-03-30T00:47:53.856Z,86.30
2019-03-30T00:50:34.285Z,84.50
2019-03-30T00:53:17.833Z,85.30
2019-03-30T00:55:56.359Z,86.10
2019-03-30T00:58:38.445Z,85.60
2019-03-30T01:01:18.937Z,85.40
2019-03-30T01:03:57.334Z,85.10
2019-03-30T01:06:35.860Z,85.50
2019-03-30T01:09:18.245Z,86.10
2019-03-30T01:11:58.989Z,84.40
2019-03-30T01:14:37.185Z,85.00
2019-03-30T01:17:18.858Z,85.30
2019-03-30T01:20:03.009Z,82.70
2019-03-30T01:22:43.607Z,85.70
2019-03-30T01:25:24.162Z,85.10
2019-03-30T01:28:08.236Z,85.90
2019-03-30T01:30:50.028Z,86.10
2019-03-30T01:33:36.732Z,87.70
2019-03-30T01:36:18.208Z,89.80
2019-03-30T01:38:57.141Z,90.10
2019-03-30T01:41:42.086Z,90.20
2019-03-30T01:44:20.539Z,90.10
2019-03-30T01:46:52.651Z,90.00
2019-03-30T01:49:36.303Z,90.00
2019-03-30T01:52:16.306Z,88.90
2019-03-30T01:54:57.206Z,87.70
2019-03-30T01:57:35.093Z,88.70
2019-03-30T02:00:18.146Z,88.70
2019-03-30T02:02:58.394Z,87.80
2019-03-30T02:05:39.492Z,86.90
2019-03-30T02:08:16.423Z,87.20
2019-03-30T02:10:55.940Z,88.70
2019-03-30T02:13:37.543Z,87.80
2019-03-30T02:16:18.459Z,88.20
2019-03-30T02:18:58.879Z,84.90
2019-03-30T02:21:40.921Z,88.20
2019-03-30T02:24:20.151Z,89.10
2019-03-30T02:26:56.491Z,90.20
2019-03-30T02:29:33.196Z,89.00
2019-03-30T02:32:14.899Z,86.70
2019-03-30T02:34:57.373Z,88.40
2019-03-30T02:37:32.819Z,90.00
2019-03-30T02:40:08.056Z,90.20
2019-03-30T02:42:45.865Z,90.10
2019-03-30T02:45:27.325Z,90.30
2019-03-30T02:48:06.388Z,90.20
2019-03-30T02:50:49.721Z,89.90
2019-03-30T02:53:27.619Z,88.60
2019-03-30T02:56:08.319Z,90.00
2019-03-30T02:58:51.588Z,89.90
2019-03-30T03:01:32.729Z,90.20
2019-03-30T03:04:14.567Z,88.60
2019-03-30T03:06:46.713Z,89.80
2019-03-30T03:09:32.706Z,90.20
2019-03-30T03:12:13.740Z,90.40
2019-03-30T03:14:51.603Z,89.80
2019-03-30T03:17:30.116Z,88.20
2019-03-30T03:20:12.757Z,89.60
2019-03-30T03:22:52.426Z,88.70
2019-03-30T03:25:30.623Z,89.00
2019-03-30T03:28:04.332Z,90.20
2019-03-30T03:30:43.934Z,90.20
2019-03-30T03:33:25.737Z,90.10
2019-03-30T03:36:03.027Z,90.80
2019-03-30T03:38:39.824Z,89.90
2019-03-30T03:41:18.091Z,89.30
2019-03-30T03:43:59.387Z,88.90
2019-03-30T03:46:40.581Z,89.40
2019-03-30T03:49:23.251Z,89.30
2019-03-30T03:52:03.985Z,90.80
2019-03-30T03:54:48.630Z,90.70
2019-03-30T03:57:32.284Z,90.20
2019-03-30T04:00:13.642Z,90.70
2019-03-30T04:02:52.965Z,90.70
2019-03-30T04:05:33.076Z,90.80
2019-03-30T04:08:08.046Z,90.80
2019-03-30T04:10:45.112Z,90.70
2019-03-30T04:13:24.805Z,88.70
2019-03-30T04:16:08.816Z,87.20
2019-03-30T04:18:54.213Z,88.60
2019-03-30T04:21:43.812Z,90.00
2019-03-30T04:24:12.054Z,87.80
2019-03-30T04:26:47.321Z,90.00
2019-03-30T04:29:18.995Z,90.20
2019-03-30T04:31:58.288Z,90.20
2019-03-30T04:34:38.112Z,90.40
2019-03-30T04:37:17.548Z,90.60
2019-03-30T04:39:57.580Z,91.90
2019-03-30T04:42:35.395Z,92.00
2019-03-30T04:45:13.901Z,91.70
2019-03-30T04:47:54.123Z,91.50
2019-03-30T04:50:35.228Z,91.10
2019-03-30T04:53:16.999Z,91.20
2019-03-30T04:55:55.175Z,90.20
2019-03-30T04:58:37.884Z,90.10
2019-03-30T05:01:22.428Z,89.10
2019-03-30T05:04:01.689Z,90.20
2019-03-30T05:06:45.000Z,90.00
2019-03-30T05:09:22.574Z,88.20
2019-03-30T05:12:03.370Z,89.60
2019-03-30T05:14:45.148Z,90.10
2019-03-30T05:17:44.569Z,90.90
2019-03-30T05:20:07.485Z,91.00
2019-03-30T05:22:44.857Z,91.10
2019-03-30T05:25:20.321Z,91.10
2019-03-30T05:27:56.269Z,91.40
2019-03-30T05:30:37.473Z,92.00
2019-03-30T05:33:20.826Z,91.90
2019-03-30T05:35:59.887Z,92.00
2019-03-30T05:38:44.101Z,91.80
2019-03-30T05:41:24.957Z,91.70
2019-03-30T05:44:00.721Z,91.40
2019-03-30T05:46:47.432Z,91.40
2019-03-30T05:52:27.026Z,91.00
2019-03-30T05:55:05.747Z,91.30
2019-03-30T05:57:46.536Z,91.30
2019-03-30T06:00:26.498Z,91.50
2019-03-30T06:03:07.508Z,91.70
2019-03-30T06:05:53.402Z,92.30
2019-03-30T06:08:34.495Z,92.20
2019-03-30T06:11:09.803Z,92.30
2019-03-30T06:13:50.861Z,92.20
2019-03-30T06:16:31.627Z,92.00
2019-03-30T06:19:12.997Z,91.60
2019-03-30T06:21:52.489Z,91.40
2019-03-30T06:24:32.326Z,91.40
2019-03-30T06:27:19.104Z,91.20
2019-03-30T06:30:22.012Z,90.70
2019-03-30T06:33:00.749Z,90.80
2019-03-30T06:35:37.183Z,91.10
2019-03-30T06:38:16.805Z,91.40
2019-03-30T06:40:55.052Z,91.60
2019-03-30T06:43:36.536Z,90.90
2019-03-30T06:46:14.573Z,91.00
2019-03-30T06:48:48.817Z,91.40
2019-03-30T06:51:25.487Z,90.80
2019-03-30T06:53:57.939Z,90.20
2019-03-30T06:56:28.283Z,90.00
2019-03-30T07:02:10.831Z,89.90
2019-03-30T07:13:46.726Z,90.10
2019-03-30T07:16:25.596Z,90.30
2019-03-30T07:19:04.051Z,90.20
2019-03-30T07:21:55.640Z,90.90
2019-03-30T07:24:58.101Z,90.60
2019-03-30T07:27:28.959Z,89.30
2019-03-30T07:30:09.136Z,90.30
2019-03-30T07:54:36.356Z,87.80
2019-03-30T07:57:24.380Z,84.50
2019-03-30T08:03:38.494Z,86.80
2019-03-30T08:06:17.661Z,85.00
2019-03-30T08:08:52.199Z,84.60
2019-03-30T08:12:06.958Z,86.20
2019-03-30T08:14:52.117Z,83.10
2019-03-30T08:20:30.243Z,83.10
2019-03-30T08:23:10.962Z,80.10
2019-03-30T08:25:50.360Z,79.20
2019-03-30T08:31:28.289Z,79.90
2019-03-30T08:37:10.645Z,79.10
2019-03-30T08:40:03.356Z,76.50
2019-03-30T08:55:22.074Z,72.50
2019-03-30T09:01:04.117Z,71.10
2019-03-30T09:03:55.372Z,69.10
2019-03-30T09:06:43.325Z,68.50
2019-03-30T09:09:31.923Z,70.80
2019-03-30T09:15:14.598Z,68.40
2019-03-30T09:18:07.108Z,65.50
2019-03-30T09:20:58.695Z,67.60
2019-03-30T09:23:49.598Z,66.40
2019-03-30T09:32:31.281Z,64.10
2019-03-30T09:47:31.556Z,62.70
2019-03-30T10:44:22.600Z,50.20
2019-03-30T10:46:58.445Z,47.80
2019-03-30T10:49:27.725Z,45.20
2019-03-30T10:51:55.878Z,45.90
2019-03-30T10:54:28.895Z,45.00
2019-03-30T10:57:05.097Z,48.90
2019-03-30T10:59:32.216Z,45.60
2019-03-30T11:01:59.060Z,45.80
2019-03-30T11:07:21.369Z,45.90
2019-03-30T11:09:52.508Z,44.80
2019-03-30T11:12:21.258Z,45.50
2019-03-30T11:15:00.949Z,48.60
2019-03-30T11:17:28.594Z,43.40
2019-03-30T11:19:59.063Z,42.10
2019-03-30T11:22:40.318Z,40.60
2019-03-30T11:28:23.977Z,43.20
2019-03-30T11:30:50.909Z,44.20
2019-03-30T11:39:50.272Z,42.20
2019-03-30T11:42:24.714Z,39.70
2019-03-30T11:48:16.440Z,37.50
2019-03-30T11:50:47.835Z,38.50
2019-03-30T11:59:42.459Z,36.90
2019-03-30T12:05:18.171Z,36.80
2019-03-30T12:07:58.757Z,36.00
2019-03-30T12:13:12.910Z,35.10
2019-03-30T12:15:40.912Z,34.10
2019-03-30T12:18:11.209Z,35.00
2019-03-30T12:20:38.529Z,34.30
2019-03-30T12:23:05.152Z,33.80
2019-03-30T12:25:35.881Z,30.30
2019-03-30T12:28:02.111Z,31.50
2019-03-30T12:30:28.759Z,31.60
2019-03-30T12:32:55.319Z,31.60
2019-03-30T12:35:23.859Z,30.60
2019-03-30T12:37:50.452Z,31.20
2019-03-30T12:40:17.183Z,28.70
2019-03-30T12:42:44.983Z,25.70
2019-03-30T12:45:11.888Z,28.60
2019-03-30T12:47:39.376Z,26.90
2019-03-30T12:50:06.352Z,29.00
2019-03-30T12:52:32.808Z,27.60
2019-03-30T12:54:59.593Z,26.70
2019-03-30T12:57:26.505Z,24.70
2019-03-30T12:59:53.231Z,25.50
2019-03-30T13:02:19.851Z,26.10
2019-03-30T13:04:46.319Z,26.20
2019-03-30T13:07:12.867Z,24.80
2019-03-30T13:09:39.293Z,23.20
2019-03-30T13:12:05.730Z,21.80
2019-03-30T13:14:32.210Z,23.70
2019-03-30T13:16:58.639Z,19.70
2019-03-30T13:19:25.151Z,19.10
2019-03-30T13:21:53.024Z,19.20
2019-03-30T13:24:19.811Z,18.70
2019-03-30T13:26:46.270Z,22.50
2019-03-30T13:29:12.738Z,20.80
2019-03-30T13:31:39.187Z,18.90
2019-03-30T13:34:05.781Z,15.50
2019-03-30T13:36:37.181Z,15.30
2019-03-30T13:39:05.149Z,14.40
2019-03-30T13:41:31.655Z,13.40
2019-03-30T13:43:58.150Z,13.80
2019-03-30T13:46:24.735Z,13.10
2019-03-30T13:48:51.246Z,13.00
2019-03-30T13:51:17.701Z,12.90
2019-03-30T13:53:44.210Z,12.80
2019-03-30T13:56:17.001Z,13.30
2019-03-30T13:58:39.190Z,10.70
2019-03-30T14:01:05.619Z,11.20
2019-03-30T14:03:32.087Z,12.60
2019-03-30T14:05:58.579Z,12.70
2019-03-30T14:08:25.031Z,11.70
2019-03-30T14:10:51.488Z,10.20
2019-03-30T14:13:17.947Z,11.70
2019-03-30T14:15:44.517Z,11.00
2019-03-30T14:18:11.978Z,10.90
2019-03-30T14:20:38.470Z,10.90
2019-03-30T14:23:04.955Z,10.70
2019-03-30T14:25:31.567Z,11.00
2019-03-30T14:27:58.022Z,10.80
2019-03-30T14:30:24.721Z,9.60
2019-03-30T14:32:51.209Z,9.80
2019-03-30T14:35:17.862Z,10.40
2019-03-30T14:37:44.387Z,11.70
2019-03-30T14:40:10.955Z,11.20
2019-03-30T14:42:37.639Z,10.70
2019-03-30T14:45:06.461Z,10.10
2019-03-30T14:47:32.909Z,11.90
2019-03-30T14:49:59.393Z,12.00
2019-03-30T14:52:25.937Z,11.10
2019-03-30T14:54:53.309Z,10.60
2019-03-30T14:57:19.911Z,10.80
2019-03-30T14:59:46.454Z,13.00
2019-03-30T15:02:12.893Z,10.70
2019-03-30T15:04:39.383Z,12.40
2019-03-30T15:07:06.837Z,13.30
2019-03-30T15:09:33.391Z,12.40
2019-03-30T15:11:59.886Z,12.50
2019-03-30T15:14:26.438Z,12.70
2019-03-30T15:16:52.875Z,11.10
2019-03-30T15:19:19.541Z,13.30
2019-03-30T15:21:46.080Z,11.60
2019-03-30T15:24:15.432Z,12.50
2019-03-30T15:26:42.106Z,12.00
2019-03-30T15:29:08.603Z,13.30
2019-03-30T15:31:35.155Z,15.00
2019-03-30T15:34:01.644Z,13.60
2019-03-30T15:36:28.380Z,13.40
2019-03-30T15:38:54.933Z,13.70
2019-03-30T15:41:21.492Z,12.70
2019-03-30T15:43:51.728Z,14.20
2019-03-30T15:46:16.364Z,14.30
2019-03-30T15:48:42.813Z,15.20
2019-03-30T15:51:09.270Z,14.00
2019-03-30T15:53:35.720Z,12.90
2019-03-30T15:56:02.387Z,14.30
2019-03-30T15:58:28.851Z,15.00
2019-03-30T16:00:55.357Z,14.20
2019-03-30T16:03:22.025Z,15.00
2019-03-30T16:05:48.491Z,15.70
2019-03-30T16:08:14.956Z,14.90
2019-03-30T16:10:41.570Z,15.10
2019-03-30T16:13:08.061Z,14.90
2019-03-30T16:15:34.626Z,15.90
2019-03-30T16:18:01.102Z,17.40
2019-03-30T16:20:27.535Z,17.40
2019-03-30T16:22:54.019Z,20.40
2019-03-30T16:25:20.483Z,20.10
2019-03-30T16:27:46.955Z,22.50
2019-03-30T16:30:13.823Z,23.90
2019-03-30T16:32:40.433Z,21.90
2019-03-30T16:35:07.895Z,24.10
2019-03-30T16:37:34.434Z,23.50
2019-03-30T16:40:01.092Z,22.50
2019-03-30T16:42:31.335Z,24.60
2019-03-30T16:45:00.481Z,24.30
2019-03-30T16:47:34.055Z,25.80
2019-03-30T16:50:02.533Z,30.00
2019-03-30T16:52:29.142Z,26.80
2019-03-30T16:54:55.678Z,28.30
2019-03-30T16:57:24.996Z,26.40
2019-03-30T16:59:52.857Z,29.70
2019-03-30T17:02:24.335Z,32.30
2019-03-30T17:04:56.346Z,28.50
2019-03-30T17:07:25.172Z,26.60
2019-03-30T17:09:54.178Z,27.20
2019-03-30T17:12:25.456Z,29.30
2019-03-30T17:14:57.375Z,29.20
2019-03-30T17:17:24.351Z,30.70
2019-03-30T17:19:51.599Z,31.30
2019-03-30T17:22:20.467Z,32.40
2019-03-30T17:24:54.660Z,32.80
2019-03-30T17:30:36.104Z,33.60
2019-03-30T17:33:03.330Z,34.10
2019-03-30T17:35:29.934Z,34.30
2019-03-30T17:37:57.763Z,34.10
2019-03-30T17:40:26.307Z,33.90
2019-03-30T17:42:54.726Z,34.70
2019-03-30T17:45:21.347Z,34.10
2019-03-30T17:48:05.161Z,34.50
2019-03-30T17:50:33.941Z,34.90
2019-03-30T17:53:00.557Z,34.90
2019-03-30T17:55:33.822Z,34.60
2019-03-30T17:58:12.370Z,34.30
2019-03-30T18:00:31.018Z,34.30
2019-03-30T18:02:58.735Z,34.50
2019-03-30T18:05:26.575Z,34.80
2019-03-30T18:07:54.501Z,35.10
2019-03-30T18:10:21.379Z,36.10
2019-03-30T18:12:48.275Z,36.30
2019-03-30T18:15:15.359Z,36.90
2019-03-30T18:17:42.006Z,36.70
2019-03-30T18:20:09.995Z,36.70
2019-03-30T18:25:43.182Z,37.10
2019-03-30T18:28:09.659Z,37.80
2019-03-30T18:30:38.258Z,38.20
2019-03-30T18:33:05.330Z,41.10
2019-03-30T18:35:32.277Z,44.80
2019-03-30T18:38:01.515Z,46.30
2019-03-30T18:40:30.946Z,47.20
2019-03-30T18:42:59.277Z,48.00
2019-03-30T18:45:27.238Z,47.90
2019-03-30T18:48:14.098Z,49.40
2019-03-30T18:50:41.084Z,50.90
2019-03-30T18:53:08.131Z,51.90
2019-03-30T18:55:35.807Z,51.80
2019-03-30T18:58:02.532Z,55.00
2019-03-30T19:00:29.059Z,56.10
2019-03-30T19:02:55.764Z,53.70
2019-03-30T19:05:23.320Z,53.90
2019-03-30T19:07:50.120Z,52.90
2019-03-30T19:10:16.880Z,53.60
2019-03-30T19:12:43.496Z,53.60
2019-03-30T19:15:10.387Z,54.30
2019-03-30T19:17:36.995Z,53.70
2019-03-30T19:20:05.651Z,55.00
2019-03-30T19:22:33.421Z,57.00
2019-03-30T19:25:00.358Z,57.10
2019-03-30T19:27:26.901Z,54.70
2019-03-30T19:29:53.551Z,54.80
2019-03-30T19:32:20.203Z,55.70
2019-03-30T19:34:46.639Z,56.50
2019-03-30T19:37:13.129Z,56.20
2019-03-30T19:39:39.621Z,54.90
2019-03-30T19:42:06.266Z,54.30
2019-03-30T19:44:32.996Z,54.30
2019-03-30T19:47:00.937Z,53.20
2019-03-30T19:49:27.499Z,55.60
2019-03-30T19:51:54.246Z,55.70
2019-03-30T19:54:20.724Z,56.30
2019-03-30T19:56:47.248Z,56.70
2019-03-30T19:59:13.845Z,57.70
2019-03-30T20:01:40.721Z,58.50
2019-03-30T20:04:07.902Z,58.50
2019-03-30T20:06:34.698Z,58.30
2019-03-30T20:09:01.355Z,58.40
2019-03-30T20:11:29.714Z,58.60
2019-03-30T20:13:56.308Z,58.60
2019-03-30T20:16:22.839Z,58.60
2019-03-30T20:18:49.489Z,58.70
2019-03-30T20:21:16.096Z,59.40
2019-03-30T20:23:42.694Z,60.10
2019-03-30T20:26:09.291Z,61.40
2019-03-30T20:28:35.807Z,63.00
2019-03-30T20:31:02.396Z,64.40
2019-03-30T20:33:29.995Z,63.70
2019-03-30T20:35:56.683Z,63.00
2019-03-30T20:38:23.172Z,61.60
2019-03-30T20:40:49.995Z,62.90
2019-03-30T20:43:16.562Z,62.40
2019-03-30T20:45:43.157Z,62.00
2019-03-30T20:48:09.687Z,63.00
2019-03-30T20:50:36.238Z,63.90
2019-03-30T20:53:02.955Z,64.30
2019-03-30T20:55:29.542Z,63.20
2019-03-30T20:57:55.993Z,62.70
2019-03-30T21:00:22.448Z,62.60
2019-03-30T21:02:49.004Z,62.90
2019-03-30T21:05:16.036Z,64.50
2019-03-30T21:07:43.479Z,63.60
2019-03-30T21:10:10.240Z,63.60
2019-03-30T21:12:36.755Z,64.20
2019-03-30T21:15:04.569Z,63.20
2019-03-30T21:17:31.008Z,63.80
2019-03-30T21:19:57.558Z,63.20
2019-03-30T21:22:24.028Z,65.10
2019-03-30T21:24:50.502Z,64.80
2019-03-30T21:27:18.064Z,64.50
2019-03-30T21:29:54.459Z,63.10
2019-03-30T21:32:12.963Z,63.70
2019-03-30T21:34:40.535Z,65.70
2019-03-30T21:37:07.106Z,65.40
2019-03-30T21:39:33.578Z,65.50
2019-03-30T21:42:00.073Z,66.30
2019-03-30T21:44:26.557Z,66.70
2019-03-30T21:46:53.022Z,66.40
2019-03-30T21:49:19.623Z,66.40
2019-03-30T21:51:46.070Z,67.10
2019-03-30T21:54:12.754Z,68.20
2019-03-30T21:56:39.226Z,67.90
2019-03-30T21:59:05.720Z,68.00
2019-03-30T22:01:32.144Z,69.70
2019-03-30T22:03:58.729Z,69.10
2019-03-30T22:06:25.301Z,68.70
2019-03-30T22:08:52.896Z,69.20
2019-03-30T22:11:19.424Z,69.70
2019-03-30T22:13:47.051Z,70.10
2019-03-30T22:16:13.520Z,71.80
2019-03-30T22:18:39.986Z,71.20
2019-03-30T22:21:06.487Z,71.80
2019-03-30T22:23:32.932Z,71.50
2019-03-30T22:25:59.365Z,70.80
2019-03-30T22:28:25.814Z,69.70
2019-03-30T22:30:52.307Z,69.20
2019-03-30T22:33:18.753Z,68.40
2019-03-30T22:35:45.186Z,69.70
2019-03-30T22:38:11.611Z,70.90
2019-03-30T22:40:41.289Z,71.50
2019-03-30T22:43:06.325Z,71.60
2019-03-30T22:45:32.760Z,71.60
2019-03-30T22:48:00.230Z,70.50
2019-03-30T22:50:26.693Z,69.30
2019-03-30T22:52:53.173Z,69.70
2019-03-30T22:55:20.712Z,70.30
2019-03-30T22:57:47.162Z,71.30
2019-03-30T23:00:38.600Z,72.30
2019-03-30T23:03:04.906Z,71.90
2019-03-30T23:05:31.631Z,72.10
2019-03-30T23:07:58.082Z,72.90
2019-03-30T23:10:24.530Z,74.00
2019-03-30T23:12:50.968Z,74.90
2019-03-30T23:15:17.415Z,75.70
2019-03-30T23:17:43.893Z,76.40
2019-03-30T23:20:10.523Z,76.60
2019-03-30T23:22:36.979Z,77.20
2019-03-30T23:25:05.190Z,77.50
2019-03-30T23:27:31.664Z,77.80
2019-03-30T23:29:58.222Z,77.30
2019-03-30T23:32:24.705Z,76.70
2019-03-30T23:34:51.123Z,75.90
2019-03-30T23:37:17.784Z,75.90
2019-03-30T23:39:44.224Z,75.60
2019-03-30T23:42:10.774Z,76.60
2019-03-30T23:44:37.233Z,75.50
2019-03-30T23:47:03.696Z,75.30
2019-03-30T23:49:30.117Z,76.40
2019-03-30T23:51:56.576Z,76.10
2019-03-30T23:54:23.013Z,76.30
2019-03-30T23:56:49.701Z,74.70
2019-03-30T23:59:16.180Z,78.10
